sensor_id;sensor_type;location;lat;lon;timestamp;temperature;humidity
27707;DHT22;36332;51.384;0.040;2023-02-01T00:01:11;6.30;99.90
27707;DHT22;36332;51.384;0.040;2023-02-01T00:03:39;6.20;99.90
27707;DHT22;36332;51.384;0.040;2023-02-01T00:06:06;6.30;99.90
27707;DHT22;36332;51.384;0.040;2023-02-01T00:08:34;6.20;99.90
27707;DHT22;36332;51.384;0.040;2023-02-01T00:11:05;6.30;99.90
27707;DHT22;36332;51.384;0.040;2023-02-01T00:13:35;6.20;99.90
27707;DHT22;36332;51.384;0.040;2023-02-01T00:16:07;6.20;99.90
27707;DHT22;36332;51.384;0.040;2023-02-01T00:18:36;6.20;99.90
27707;DHT22;36332;51.384;0.040;2023-02-01T00:21:04;6.20;99.90
27707;DHT22;36332;51.384;0.040;2023-02-01T00:23:34;6.20;99.90
27707;DHT22;36332;51.384;0.040;2023-02-01T00:26:05;6.10;99.90
27707;DHT22;36332;51.384;0.040;2023-02-01T00:28:33;6.10;99.90
27707;DHT22;36332;51.384;0.040;2023-02-01T00:31:03;6.00;99.90
27707;DHT22;36332;51.384;0.040;2023-02-01T00:33:32;6.00;99.90
27707;DHT22;36332;51.384;0.040;2023-02-01T00:36:02;5.80;99.90
27707;DHT22;36332;51.384;0.040;2023-02-01T00:38:32;6.00;99.90
27707;DHT22;36332;51.384;0.040;2023-02-01T00:41:20;5.90;99.90
27707;DHT22;36332;51.384;0.040;2023-02-01T00:43:49;5.90;99.90
27707;DHT22;36332;51.384;0.040;2023-02-01T00:46:18;5.90;99.90
27707;DHT22;36332;51.384;0.040;2023-02-01T00:48:46;5.90;99.90
27707;DHT22;36332;51.384;0.040;2023-02-01T00:51:25;5.90;99.90
27707;DHT22;36332;51.384;0.040;2023-02-01T00:53:53;5.90;99.90
27707;DHT22;36332;51.384;0.040;2023-02-01T00:56:21;5.90;99.90
27707;DHT22;36332;51.384;0.040;2023-02-01T00:58:48;5.90;99.90
27707;DHT22;36332;51.384;0.040;2023-02-01T01:01:19;5.90;99.90
27707;DHT22;36332;51.384;0.040;2023-02-01T01:03:50;5.80;99.90
27707;DHT22;36332;51.384;0.040;2023-02-01T01:06:24;5.80;99.90
27707;DHT22;36332;51.384;0.040;2023-02-01T01:08:53;5.80;99.90
27707;DHT22;36332;51.384;0.040;2023-02-01T01:11:24;5.80;99.90
27707;DHT22;36332;51.384;0.040;2023-02-01T01:13:53;5.90;99.90
27707;DHT22;36332;51.384;0.040;2023-02-01T01:16:22;5.80;99.90
27707;DHT22;36332;51.384;0.040;2023-02-01T01:18:50;5.80;99.90
27707;DHT22;36332;51.384;0.040;2023-02-01T01:21:18;5.80;99.90
27707;DHT22;36332;51.384;0.040;2023-02-01T01:23:47;5.90;99.90
27707;DHT22;36332;51.384;0.040;2023-02-01T01:26:17;5.90;99.90
27707;DHT22;36332;51.384;0.040;2023-02-01T01:28:45;5.90;99.90
27707;DHT22;36332;51.384;0.040;2023-02-01T01:31:15;5.90;99.90
27707;DHT22;36332;51.384;0.040;2023-02-01T01:33:44;5.80;99.90
27707;DHT22;36332;51.384;0.040;2023-02-01T01:36:12;5.90;99.90
27707;DHT22;36332;51.384;0.040;2023-02-01T01:38:40;5.90;99.90
27707;DHT22;36332;51.384;0.040;2023-02-01T01:41:13;5.80;99.90
27707;DHT22;36332;51.384;0.040;2023-02-01T01:49:03;5.80;99.90
27707;DHT22;36332;51.384;0.040;2023-02-01T01:51:43;5.80;99.90
27707;DHT22;36332;51.384;0.040;2023-02-01T01:54:27;5.80;99.90
27707;DHT22;36332;51.384;0.040;2023-02-01T01:57:00;5.80;99.90
27707;DHT22;36332;51.384;0.040;2023-02-01T01:59:31;5.90;99.90
27707;DHT22;36332;51.384;0.040;2023-02-01T02:01:59;5.90;99.90
27707;DHT22;36332;51.384;0.040;2023-02-01T02:04:28;5.90;99.90
27707;DHT22;36332;51.384;0.040;2023-02-01T02:07:09;5.90;99.90
27707;DHT22;36332;51.384;0.040;2023-02-01T02:09:39;5.90;99.90
27707;DHT22;36332;51.384;0.040;2023-02-01T02:12:14;5.90;99.90
27707;DHT22;36332;51.384;0.040;2023-02-01T02:14:42;5.90;99.90
27707;DHT22;36332;51.384;0.040;2023-02-01T02:17:19;5.90;99.90
27707;DHT22;36332;51.384;0.040;2023-02-01T02:22:46;5.90;99.90
27707;DHT22;36332;51.384;0.040;2023-02-01T02:31:40;6.00;99.90
27707;DHT22;36332;51.384;0.040;2023-02-01T02:45:26;5.90;99.90
27707;DHT22;36332;51.384;0.040;2023-02-01T02:48:27;6.00;99.90
27707;DHT22;36332;51.384;0.040;2023-02-01T02:51:07;6.00;99.90
27707;DHT22;36332;51.384;0.040;2023-02-01T02:54:03;6.00;99.90
27707;DHT22;36332;51.384;0.040;2023-02-01T02:56:51;6.00;99.90
27707;DHT22;36332;51.384;0.040;2023-02-01T02:59:40;6.00;99.90
27707;DHT22;36332;51.384;0.040;2023-02-01T03:02:30;6.10;99.90
27707;DHT22;36332;51.384;0.040;2023-02-01T03:05:17;6.10;99.90
27707;DHT22;36332;51.384;0.040;2023-02-01T03:08:10;6.10;99.90
27707;DHT22;36332;51.384;0.040;2023-02-01T03:13:53;6.30;99.90
27707;DHT22;36332;51.384;0.040;2023-02-01T03:16:42;6.40;99.90
27707;DHT22;36332;51.384;0.040;2023-02-01T03:19:21;6.50;99.90
27707;DHT22;36332;51.384;0.040;2023-02-01T03:22:08;6.50;99.90
27707;DHT22;36332;51.384;0.040;2023-02-01T03:24:41;6.60;99.90
27707;DHT22;36332;51.384;0.040;2023-02-01T03:27:27;6.60;99.90
27707;DHT22;36332;51.384;0.040;2023-02-01T03:32:25;6.60;99.90
27707;DHT22;36332;51.384;0.040;2023-02-01T03:34:54;6.60;99.90
27707;DHT22;36332;51.384;0.040;2023-02-01T03:37:26;6.50;99.90
27707;DHT22;36332;51.384;0.040;2023-02-01T03:40:01;6.50;99.90
27707;DHT22;36332;51.384;0.040;2023-02-01T03:42:42;6.50;99.90
27707;DHT22;36332;51.384;0.040;2023-02-01T03:45:16;6.50;99.90
27707;DHT22;36332;51.384;0.040;2023-02-01T03:47:50;6.40;99.90
27707;DHT22;36332;51.384;0.040;2023-02-01T03:50:21;6.40;99.90
27707;DHT22;36332;51.384;0.040;2023-02-01T03:53:13;6.40;99.90
27707;DHT22;36332;51.384;0.040;2023-02-01T03:55:44;6.40;99.90
27707;DHT22;36332;51.384;0.040;2023-02-01T03:58:15;6.40;99.90
27707;DHT22;36332;51.384;0.040;2023-02-01T04:00:46;6.40;99.90
27707;DHT22;36332;51.384;0.040;2023-02-01T04:03:17;6.30;99.90
27707;DHT22;36332;51.384;0.040;2023-02-01T04:05:45;6.30;99.90
27707;DHT22;36332;51.384;0.040;2023-02-01T04:08:13;6.30;99.90
27707;DHT22;36332;51.384;0.040;2023-02-01T04:10:40;6.30;99.90
27707;DHT22;36332;51.384;0.040;2023-02-01T04:13:08;6.30;99.90
27707;DHT22;36332;51.384;0.040;2023-02-01T04:15:35;6.40;99.90
27707;DHT22;36332;51.384;0.040;2023-02-01T04:18:03;6.30;99.90
27707;DHT22;36332;51.384;0.040;2023-02-01T04:20:31;6.30;99.90
27707;DHT22;36332;51.384;0.040;2023-02-01T04:22:58;6.40;99.90
27707;DHT22;36332;51.384;0.040;2023-02-01T04:25:26;6.40;99.90
27707;DHT22;36332;51.384;0.040;2023-02-01T04:27:53;6.30;99.90
27707;DHT22;36332;51.384;0.040;2023-02-01T04:30:21;6.30;99.90
27707;DHT22;36332;51.384;0.040;2023-02-01T04:32:49;6.30;99.90
27707;DHT22;36332;51.384;0.040;2023-02-01T04:35:16;6.30;99.90
27707;DHT22;36332;51.384;0.040;2023-02-01T04:37:45;6.30;99.90
27707;DHT22;36332;51.384;0.040;2023-02-01T04:40:12;6.30;99.90
27707;DHT22;36332;51.384;0.040;2023-02-01T04:42:40;6.30;99.90
27707;DHT22;36332;51.384;0.040;2023-02-01T04:45:07;6.30;99.90
27707;DHT22;36332;51.384;0.040;2023-02-01T04:47:36;6.30;99.90
27707;DHT22;36332;51.384;0.040;2023-02-01T04:50:03;6.30;99.90
27707;DHT22;36332;51.384;0.040;2023-02-01T04:52:34;6.30;99.90
27707;DHT22;36332;51.384;0.040;2023-02-01T04:55:01;6.30;99.90
27707;DHT22;36332;51.384;0.040;2023-02-01T04:57:30;6.40;99.90
27707;DHT22;36332;51.384;0.040;2023-02-01T04:59:57;6.30;99.90
27707;DHT22;36332;51.384;0.040;2023-02-01T05:02:25;6.30;99.90
27707;DHT22;36332;51.384;0.040;2023-02-01T05:04:52;6.20;99.90
27707;DHT22;36332;51.384;0.040;2023-02-01T05:07:21;6.20;99.90
27707;DHT22;36332;51.384;0.040;2023-02-01T05:09:49;6.20;99.90
27707;DHT22;36332;51.384;0.040;2023-02-01T05:12:16;6.20;99.90
27707;DHT22;36332;51.384;0.040;2023-02-01T05:15:02;6.20;99.90
27707;DHT22;36332;51.384;0.040;2023-02-01T05:19:58;6.20;99.90
27707;DHT22;36332;51.384;0.040;2023-02-01T05:22:25;6.20;99.90
27707;DHT22;36332;51.384;0.040;2023-02-01T05:24:53;6.20;99.90
27707;DHT22;36332;51.384;0.040;2023-02-01T05:27:20;6.20;99.90
27707;DHT22;36332;51.384;0.040;2023-02-01T05:29:48;6.20;99.90
27707;DHT22;36332;51.384;0.040;2023-02-01T05:32:15;6.20;99.90
27707;DHT22;36332;51.384;0.040;2023-02-01T05:34:49;6.30;99.90
27707;DHT22;36332;51.384;0.040;2023-02-01T05:37:17;6.30;99.90
27707;DHT22;36332;51.384;0.040;2023-02-01T05:39:45;6.30;99.90
27707;DHT22;36332;51.384;0.040;2023-02-01T05:42:13;6.30;99.90
27707;DHT22;36332;51.384;0.040;2023-02-01T05:44:41;6.30;99.90
27707;DHT22;36332;51.384;0.040;2023-02-01T05:47:09;6.30;99.90
27707;DHT22;36332;51.384;0.040;2023-02-01T05:49:37;6.30;99.90
27707;DHT22;36332;51.384;0.040;2023-02-01T05:52:05;6.30;99.90
27707;DHT22;36332;51.384;0.040;2023-02-01T05:54:32;6.30;99.90
27707;DHT22;36332;51.384;0.040;2023-02-01T05:59:28;6.30;99.90
27707;DHT22;36332;51.384;0.040;2023-02-01T06:01:56;6.40;99.90
27707;DHT22;36332;51.384;0.040;2023-02-01T06:04:25;6.40;99.90
27707;DHT22;36332;51.384;0.040;2023-02-01T06:06:52;6.40;99.90
27707;DHT22;36332;51.384;0.040;2023-02-01T06:09:20;6.40;99.90
27707;DHT22;36332;51.384;0.040;2023-02-01T06:11:47;6.40;99.90
27707;DHT22;36332;51.384;0.040;2023-02-01T06:14:15;6.30;99.90
27707;DHT22;36332;51.384;0.040;2023-02-01T06:16:43;6.40;99.90
27707;DHT22;36332;51.384;0.040;2023-02-01T06:19:13;6.40;99.90
27707;DHT22;36332;51.384;0.040;2023-02-01T06:21:40;6.40;99.90
27707;DHT22;36332;51.384;0.040;2023-02-01T06:24:08;6.40;99.90
27707;DHT22;36332;51.384;0.040;2023-02-01T06:26:36;6.40;99.90
27707;DHT22;36332;51.384;0.040;2023-02-01T06:29:04;6.40;99.90
27707;DHT22;36332;51.384;0.040;2023-02-01T06:31:34;6.40;99.90
27707;DHT22;36332;51.384;0.040;2023-02-01T06:34:01;6.40;99.90
27707;DHT22;36332;51.384;0.040;2023-02-01T06:36:31;6.40;99.90
27707;DHT22;36332;51.384;0.040;2023-02-01T06:38:58;6.40;99.90
27707;DHT22;36332;51.384;0.040;2023-02-01T06:41:26;6.40;99.90
27707;DHT22;36332;51.384;0.040;2023-02-01T06:43:56;6.40;99.90
27707;DHT22;36332;51.384;0.040;2023-02-01T06:46:24;6.40;99.90
27707;DHT22;36332;51.384;0.040;2023-02-01T06:48:51;6.40;99.90
27707;DHT22;36332;51.384;0.040;2023-02-01T06:51:20;6.40;99.90
27707;DHT22;36332;51.384;0.040;2023-02-01T06:53:49;6.50;99.90
27707;DHT22;36332;51.384;0.040;2023-02-01T06:56:16;6.40;99.90
27707;DHT22;36332;51.384;0.040;2023-02-01T06:58:44;6.40;99.90
27707;DHT22;36332;51.384;0.040;2023-02-01T07:01:12;6.40;99.90
27707;DHT22;36332;51.384;0.040;2023-02-01T07:03:40;6.40;99.90
27707;DHT22;36332;51.384;0.040;2023-02-01T07:06:08;6.40;99.90
27707;DHT22;36332;51.384;0.040;2023-02-01T07:08:37;6.40;99.90
27707;DHT22;36332;51.384;0.040;2023-02-01T07:11:07;6.40;99.90
27707;DHT22;36332;51.384;0.040;2023-02-01T07:13:35;6.40;99.90
27707;DHT22;36332;51.384;0.040;2023-02-01T07:16:06;6.30;99.90
27707;DHT22;36332;51.384;0.040;2023-02-01T07:18:34;6.40;99.90
27707;DHT22;36332;51.384;0.040;2023-02-01T07:21:01;6.40;99.90
27707;DHT22;36332;51.384;0.040;2023-02-01T07:23:29;6.30;99.90
27707;DHT22;36332;51.384;0.040;2023-02-01T07:25:59;6.40;99.90
27707;DHT22;36332;51.384;0.040;2023-02-01T07:28:29;6.40;99.90
27707;DHT22;36332;51.384;0.040;2023-02-01T07:31:10;6.40;99.90
27707;DHT22;36332;51.384;0.040;2023-02-01T07:33:39;6.50;99.90
27707;DHT22;36332;51.384;0.040;2023-02-01T07:36:08;6.50;99.90
27707;DHT22;36332;51.384;0.040;2023-02-01T07:38:37;6.50;99.90
27707;DHT22;36332;51.384;0.040;2023-02-01T07:41:06;6.50;99.90
27707;DHT22;36332;51.384;0.040;2023-02-01T07:43:34;6.50;99.90
27707;DHT22;36332;51.384;0.040;2023-02-01T07:46:03;6.60;99.90
27707;DHT22;36332;51.384;0.040;2023-02-01T07:48:31;6.60;99.90
27707;DHT22;36332;51.384;0.040;2023-02-01T07:51:08;6.60;99.90
27707;DHT22;36332;51.384;0.040;2023-02-01T07:53:36;6.60;99.90
27707;DHT22;36332;51.384;0.040;2023-02-01T07:56:08;6.60;99.90
27707;DHT22;36332;51.384;0.040;2023-02-01T07:58:37;6.60;99.90
27707;DHT22;36332;51.384;0.040;2023-02-01T08:01:04;6.60;99.90
27707;DHT22;36332;51.384;0.040;2023-02-01T08:03:48;6.60;99.90
27707;DHT22;36332;51.384;0.040;2023-02-01T08:06:17;6.60;99.90
27707;DHT22;36332;51.384;0.040;2023-02-01T08:08:48;6.60;99.90
27707;DHT22;36332;51.384;0.040;2023-02-01T08:11:16;6.60;99.90
27707;DHT22;36332;51.384;0.040;2023-02-01T08:13:44;6.60;99.90
27707;DHT22;36332;51.384;0.040;2023-02-01T08:16:13;6.60;99.90
27707;DHT22;36332;51.384;0.040;2023-02-01T08:18:42;6.60;99.90
27707;DHT22;36332;51.384;0.040;2023-02-01T08:21:15;6.70;99.90
27707;DHT22;36332;51.384;0.040;2023-02-01T08:23:43;6.70;99.90
27707;DHT22;36332;51.384;0.040;2023-02-01T08:28:46;6.70;99.90
27707;DHT22;36332;51.384;0.040;2023-02-01T08:31:16;6.70;99.90
27707;DHT22;36332;51.384;0.040;2023-02-01T08:33:47;6.70;99.90
27707;DHT22;36332;51.384;0.040;2023-02-01T08:36:15;6.90;99.90
27707;DHT22;36332;51.384;0.040;2023-02-01T08:38:43;6.90;99.90
27707;DHT22;36332;51.384;0.040;2023-02-01T08:41:17;6.90;99.90
27707;DHT22;36332;51.384;0.040;2023-02-01T08:43:45;7.10;99.90
27707;DHT22;36332;51.384;0.040;2023-02-01T08:46:14;7.10;99.90
27707;DHT22;36332;51.384;0.040;2023-02-01T08:48:42;7.20;99.90
27707;DHT22;36332;51.384;0.040;2023-02-01T08:51:11;7.20;99.90
27707;DHT22;36332;51.384;0.040;2023-02-01T08:53:40;7.20;99.90
27707;DHT22;36332;51.384;0.040;2023-02-01T08:56:10;7.20;99.90
27707;DHT22;36332;51.384;0.040;2023-02-01T08:58:39;7.20;99.90
27707;DHT22;36332;51.384;0.040;2023-02-01T09:01:12;7.10;99.90
27707;DHT22;36332;51.384;0.040;2023-02-01T09:03:41;7.10;99.90
27707;DHT22;36332;51.384;0.040;2023-02-01T09:06:11;7.20;99.90
27707;DHT22;36332;51.384;0.040;2023-02-01T09:08:40;7.10;99.90
27707;DHT22;36332;51.384;0.040;2023-02-01T09:11:12;7.20;99.90
27707;DHT22;36332;51.384;0.040;2023-02-01T09:13:41;7.20;99.90
27707;DHT22;36332;51.384;0.040;2023-02-01T09:16:09;7.20;99.90
27707;DHT22;36332;51.384;0.040;2023-02-01T09:18:37;7.30;99.90
27707;DHT22;36332;51.384;0.040;2023-02-01T09:21:22;7.40;99.90
27707;DHT22;36332;51.384;0.040;2023-02-01T09:23:53;7.50;99.90
27707;DHT22;36332;51.384;0.040;2023-02-01T09:26:21;7.60;99.90
27707;DHT22;36332;51.384;0.040;2023-02-01T09:28:58;7.80;99.90
27707;DHT22;36332;51.384;0.040;2023-02-01T09:31:26;7.90;99.90
27707;DHT22;36332;51.384;0.040;2023-02-01T09:33:54;8.00;99.90
27707;DHT22;36332;51.384;0.040;2023-02-01T09:36:22;8.20;99.90
27707;DHT22;36332;51.384;0.040;2023-02-01T09:38:52;8.30;99.90
27707;DHT22;36332;51.384;0.040;2023-02-01T09:46:47;8.70;99.90
27707;DHT22;36332;51.384;0.040;2023-02-01T09:49:28;8.70;99.90
27707;DHT22;36332;51.384;0.040;2023-02-01T09:51:57;8.60;99.90
27707;DHT22;36332;51.384;0.040;2023-02-01T09:57:19;8.60;99.90
27707;DHT22;36332;51.384;0.040;2023-02-01T09:59:54;8.60;99.90
27707;DHT22;36332;51.384;0.040;2023-02-01T10:02:26;8.70;99.90
27707;DHT22;36332;51.384;0.040;2023-02-01T10:04:59;8.80;99.90
27707;DHT22;36332;51.384;0.040;2023-02-01T10:08:04;8.90;99.90
27707;DHT22;36332;51.384;0.040;2023-02-01T10:10:49;9.10;99.90
27707;DHT22;36332;51.384;0.040;2023-02-01T10:14:25;9.20;99.90
27707;DHT22;36332;51.384;0.040;2023-02-01T10:16:43;9.30;99.90
27707;DHT22;36332;51.384;0.040;2023-02-01T10:22:10;9.50;99.90
27707;DHT22;36332;51.384;0.040;2023-02-01T10:24:56;9.60;99.90
27707;DHT22;36332;51.384;0.040;2023-02-01T10:27:34;9.60;99.90
27707;DHT22;36332;51.384;0.040;2023-02-01T10:30:22;9.70;99.90
27707;DHT22;36332;51.384;0.040;2023-02-01T10:33:07;9.80;99.90
27707;DHT22;36332;51.384;0.040;2023-02-01T10:35:40;9.90;99.90
27707;DHT22;36332;51.384;0.040;2023-02-01T10:38:22;10.00;99.90
27707;DHT22;36332;51.384;0.040;2023-02-01T10:40:53;10.00;99.90
27707;DHT22;36332;51.384;0.040;2023-02-01T10:43:22;10.10;99.90
27707;DHT22;36332;51.384;0.040;2023-02-01T10:45:50;10.20;99.90
27707;DHT22;36332;51.384;0.040;2023-02-01T10:48:18;10.20;99.90
27707;DHT22;36332;51.384;0.040;2023-02-01T10:51:12;10.10;99.90
27707;DHT22;36332;51.384;0.040;2023-02-01T10:54:09;10.20;99.90
27707;DHT22;36332;51.384;0.040;2023-02-01T10:56:37;10.30;99.90
27707;DHT22;36332;51.384;0.040;2023-02-01T10:59:13;10.20;99.90
27707;DHT22;36332;51.384;0.040;2023-02-01T11:01:42;10.20;99.90
27707;DHT22;36332;51.384;0.040;2023-02-01T11:04:17;10.10;99.90
27707;DHT22;36332;51.384;0.040;2023-02-01T11:07:16;10.10;99.90
27707;DHT22;36332;51.384;0.040;2023-02-01T11:09:52;10.20;99.90
27707;DHT22;36332;51.384;0.040;2023-02-01T11:12:37;10.20;99.90
27707;DHT22;36332;51.384;0.040;2023-02-01T11:15:19;10.10;99.90
27707;DHT22;36332;51.384;0.040;2023-02-01T11:17:49;9.90;99.90
27707;DHT22;36332;51.384;0.040;2023-02-01T11:20:32;9.80;99.90
27707;DHT22;36332;51.384;0.040;2023-02-01T11:23:01;9.80;99.90
27707;DHT22;36332;51.384;0.040;2023-02-01T11:25:36;9.90;99.90
27707;DHT22;36332;51.384;0.040;2023-02-01T11:28:04;10.00;99.90
27707;DHT22;36332;51.384;0.040;2023-02-01T11:30:36;10.20;99.90
27707;DHT22;36332;51.384;0.040;2023-02-01T11:33:09;10.30;99.90
27707;DHT22;36332;51.384;0.040;2023-02-01T11:35:40;10.50;99.90
27707;DHT22;36332;51.384;0.040;2023-02-01T11:38:30;10.70;99.90
27707;DHT22;36332;51.384;0.040;2023-02-01T11:41:13;10.70;99.90
27707;DHT22;36332;51.384;0.040;2023-02-01T11:43:57;10.80;99.90
27707;DHT22;36332;51.384;0.040;2023-02-01T11:46:31;10.80;99.90
27707;DHT22;36332;51.384;0.040;2023-02-01T11:49:34;10.80;99.90
27707;DHT22;36332;51.384;0.040;2023-02-01T12:12:10;10.30;99.90
27707;DHT22;36332;51.384;0.040;2023-02-01T12:15:17;10.60;99.90
27707;DHT22;36332;51.384;0.040;2023-02-01T12:21:03;11.20;99.90
27707;DHT22;36332;51.384;0.040;2023-02-01T12:23:46;11.30;99.90
27707;DHT22;36332;51.384;0.040;2023-02-01T12:29:25;11.20;99.90
27707;DHT22;36332;51.384;0.040;2023-02-01T12:32:04;11.10;99.90
27707;DHT22;36332;51.384;0.040;2023-02-01T12:34:53;11.30;99.90
27707;DHT22;36332;51.384;0.040;2023-02-01T12:40:13;11.70;99.90
27707;DHT22;36332;51.384;0.040;2023-02-01T12:42:55;12.00;99.90
27707;DHT22;36332;51.384;0.040;2023-02-01T12:45:34;12.20;99.90
27707;DHT22;36332;51.384;0.040;2023-02-01T12:51:05;12.20;99.90
27707;DHT22;36332;51.384;0.040;2023-02-01T12:53:54;12.10;99.90
27707;DHT22;36332;51.384;0.040;2023-02-01T12:56:51;12.00;99.90
27707;DHT22;36332;51.384;0.040;2023-02-01T12:59:25;11.90;99.90
27707;DHT22;36332;51.384;0.040;2023-02-01T13:01:56;11.80;99.90
27707;DHT22;36332;51.384;0.040;2023-02-01T13:07:22;11.50;99.90
27707;DHT22;36332;51.384;0.040;2023-02-01T13:09:59;11.40;99.90
27707;DHT22;36332;51.384;0.040;2023-02-01T13:12:50;11.50;99.90
27707;DHT22;36332;51.384;0.040;2023-02-01T13:15:27;11.50;99.90
27707;DHT22;36332;51.384;0.040;2023-02-01T13:17:59;11.60;99.90
27707;DHT22;36332;51.384;0.040;2023-02-01T13:20:32;11.70;99.90
27707;DHT22;36332;51.384;0.040;2023-02-01T13:23:11;11.90;99.90
27707;DHT22;36332;51.384;0.040;2023-02-01T13:25:50;12.30;99.90
27707;DHT22;36332;51.384;0.040;2023-02-01T13:28:53;12.60;99.90
27707;DHT22;36332;51.384;0.040;2023-02-01T13:34:01;12.90;99.90
27707;DHT22;36332;51.384;0.040;2023-02-01T13:36:38;13.10;99.90
27707;DHT22;36332;51.384;0.040;2023-02-01T13:42:22;12.90;99.90
27707;DHT22;36332;51.384;0.040;2023-02-01T13:44:56;12.70;99.90
27707;DHT22;36332;51.384;0.040;2023-02-01T13:47:39;12.60;99.90
27707;DHT22;36332;51.384;0.040;2023-02-01T13:50:27;12.50;99.90
27707;DHT22;36332;51.384;0.040;2023-02-01T13:55:40;12.40;99.90
27707;DHT22;36332;51.384;0.040;2023-02-01T13:58:29;12.30;99.90
27707;DHT22;36332;51.384;0.040;2023-02-01T14:04:00;11.90;99.90
27707;DHT22;36332;51.384;0.040;2023-02-01T14:11:55;11.60;99.90
27707;DHT22;36332;51.384;0.040;2023-02-01T14:19:28;11.50;99.90
27707;DHT22;36332;51.384;0.040;2023-02-01T14:22:00;11.50;99.90
27707;DHT22;36332;51.384;0.040;2023-02-01T14:27:21;11.50;99.90
27707;DHT22;36332;51.384;0.040;2023-02-01T14:30:02;11.50;99.90
27707;DHT22;36332;51.384;0.040;2023-02-01T14:32:36;11.50;99.90
27707;DHT22;36332;51.384;0.040;2023-02-01T14:35:12;11.50;99.90
27707;DHT22;36332;51.384;0.040;2023-02-01T14:37:44;11.50;99.90
27707;DHT22;36332;51.384;0.040;2023-02-01T14:42:49;11.60;99.90
27707;DHT22;36332;51.384;0.040;2023-02-01T15:04:06;12.70;99.90
27707;DHT22;36332;51.384;0.040;2023-02-01T15:06:39;12.90;99.90
27707;DHT22;36332;51.384;0.040;2023-02-01T15:09:29;12.90;99.90
27707;DHT22;36332;51.384;0.040;2023-02-01T15:12:03;12.90;99.90
27707;DHT22;36332;51.384;0.040;2023-02-01T15:14:35;12.80;99.90
27707;DHT22;36332;51.384;0.040;2023-02-01T15:17:24;13.40;99.90
27707;DHT22;36332;51.384;0.040;2023-02-01T15:20:00;12.50;99.90
27707;DHT22;36332;51.384;0.040;2023-02-01T15:22:31;12.40;99.90
27707;DHT22;36332;51.384;0.040;2023-02-01T15:24:59;12.30;99.90
27707;DHT22;36332;51.384;0.040;2023-02-01T15:27:28;12.20;99.90
27707;DHT22;36332;51.384;0.040;2023-02-01T15:30:08;12.10;99.90
27707;DHT22;36332;51.384;0.040;2023-02-01T15:32:38;12.10;99.90
27707;DHT22;36332;51.384;0.040;2023-02-01T15:35:40;12.00;99.90
27707;DHT22;36332;51.384;0.040;2023-02-01T15:46:39;11.40;99.90
27707;DHT22;36332;51.384;0.040;2023-02-01T15:49:32;11.30;99.90
27707;DHT22;36332;51.384;0.040;2023-02-01T15:52:08;11.10;99.90
27707;DHT22;36332;51.384;0.040;2023-02-01T15:54:46;11.10;99.90
27707;DHT22;36332;51.384;0.040;2023-02-01T15:57:26;11.00;99.90
27707;DHT22;36332;51.384;0.040;2023-02-01T16:00:02;11.00;99.90
27707;DHT22;36332;51.384;0.040;2023-02-01T16:02:43;10.90;99.90
27707;DHT22;36332;51.384;0.040;2023-02-01T16:05:38;10.90;99.90
27707;DHT22;36332;51.384;0.040;2023-02-01T16:08:21;10.90;99.90
27707;DHT22;36332;51.384;0.040;2023-02-01T16:10:52;10.80;99.90
27707;DHT22;36332;51.384;0.040;2023-02-01T16:13:20;10.70;99.90
27707;DHT22;36332;51.384;0.040;2023-02-01T16:15:48;10.70;99.90
27707;DHT22;36332;51.384;0.040;2023-02-01T16:18:16;10.60;99.90
27707;DHT22;36332;51.384;0.040;2023-02-01T16:20:47;10.60;99.90
27707;DHT22;36332;51.384;0.040;2023-02-01T16:23:15;10.60;99.90
27707;DHT22;36332;51.384;0.040;2023-02-01T16:25:42;10.60;99.90
27707;DHT22;36332;51.384;0.040;2023-02-01T16:28:10;10.60;99.90
27707;DHT22;36332;51.384;0.040;2023-02-01T16:30:37;10.50;99.90
27707;DHT22;36332;51.384;0.040;2023-02-01T16:33:11;10.40;99.90
27707;DHT22;36332;51.384;0.040;2023-02-01T16:35:42;10.40;99.90
27707;DHT22;36332;51.384;0.040;2023-02-01T16:38:12;10.40;99.90
27707;DHT22;36332;51.384;0.040;2023-02-01T16:40:41;10.40;99.90
27707;DHT22;36332;51.384;0.040;2023-02-01T16:45:42;10.30;99.90
27707;DHT22;36332;51.384;0.040;2023-02-01T16:48:26;10.30;99.90
27707;DHT22;36332;51.384;0.040;2023-02-01T16:50:58;10.30;99.90
27707;DHT22;36332;51.384;0.040;2023-02-01T16:53:30;10.30;99.90
27707;DHT22;36332;51.384;0.040;2023-02-01T16:56:16;10.30;99.90
27707;DHT22;36332;51.384;0.040;2023-02-01T16:58:45;10.30;99.90
27707;DHT22;36332;51.384;0.040;2023-02-01T17:01:15;10.30;99.90
27707;DHT22;36332;51.384;0.040;2023-02-01T17:03:44;10.20;99.90
27707;DHT22;36332;51.384;0.040;2023-02-01T17:06:16;10.20;99.90
27707;DHT22;36332;51.384;0.040;2023-02-01T17:08:47;10.20;99.90
27707;DHT22;36332;51.384;0.040;2023-02-01T17:11:17;10.20;99.90
27707;DHT22;36332;51.384;0.040;2023-02-01T17:13:45;10.20;99.90
27707;DHT22;36332;51.384;0.040;2023-02-01T17:18:58;10.10;99.90
27707;DHT22;36332;51.384;0.040;2023-02-01T17:21:28;10.00;99.90
27707;DHT22;36332;51.384;0.040;2023-02-01T17:23:56;10.10;99.90
27707;DHT22;36332;51.384;0.040;2023-02-01T17:26:26;10.00;99.90
27707;DHT22;36332;51.384;0.040;2023-02-01T17:28:53;10.10;99.90
27707;DHT22;36332;51.384;0.040;2023-02-01T17:31:21;10.10;99.90
27707;DHT22;36332;51.384;0.040;2023-02-01T17:33:50;10.10;99.90
27707;DHT22;36332;51.384;0.040;2023-02-01T17:36:18;10.00;99.90
27707;DHT22;36332;51.384;0.040;2023-02-01T17:38:46;10.00;99.90
27707;DHT22;36332;51.384;0.040;2023-02-01T17:41:31;10.00;99.90
27707;DHT22;36332;51.384;0.040;2023-02-01T17:48:55;10.00;99.90
27707;DHT22;36332;51.384;0.040;2023-02-01T17:51:25;9.90;99.90
27707;DHT22;36332;51.384;0.040;2023-02-01T17:53:55;9.90;99.90
27707;DHT22;36332;51.384;0.040;2023-02-01T17:56:24;9.80;99.90
27707;DHT22;36332;51.384;0.040;2023-02-01T17:58:51;9.80;99.90
27707;DHT22;36332;51.384;0.040;2023-02-01T18:01:21;9.80;99.90
27707;DHT22;36332;51.384;0.040;2023-02-01T18:03:50;9.70;99.90
27707;DHT22;36332;51.384;0.040;2023-02-01T18:06:22;9.70;99.90
27707;DHT22;36332;51.384;0.040;2023-02-01T18:08:51;9.60;99.90
27707;DHT22;36332;51.384;0.040;2023-02-01T18:11:21;9.60;99.90
27707;DHT22;36332;51.384;0.040;2023-02-01T18:13:50;9.60;99.90
27707;DHT22;36332;51.384;0.040;2023-02-01T18:16:31;9.60;99.90
27707;DHT22;36332;51.384;0.040;2023-02-01T18:18:59;9.80;99.90
27707;DHT22;36332;51.384;0.040;2023-02-01T18:21:37;9.60;99.90
27707;DHT22;36332;51.384;0.040;2023-02-01T18:24:12;9.60;99.90
27707;DHT22;36332;51.384;0.040;2023-02-01T18:26:41;9.60;99.90
27707;DHT22;36332;51.384;0.040;2023-02-01T18:29:11;9.60;99.90
27707;DHT22;36332;51.384;0.040;2023-02-01T18:31:47;9.60;99.90
27707;DHT22;36332;51.384;0.040;2023-02-01T18:34:16;9.60;99.90
27707;DHT22;36332;51.384;0.040;2023-02-01T18:39:16;9.60;99.90
27707;DHT22;36332;51.384;0.040;2023-02-01T18:41:48;9.60;99.90
27707;DHT22;36332;51.384;0.040;2023-02-01T18:44:18;9.60;99.90
27707;DHT22;36332;51.384;0.040;2023-02-01T18:46:45;9.50;99.90
27707;DHT22;36332;51.384;0.040;2023-02-01T18:49:13;9.50;99.90